»·PEaware :: SWA1066 KLAX-KSFO

SWA1066 :: KLAX-KSFO

FLIGHT INFORMATION

Flight Status: Arrived
Operator:
Southwest Airlines
More flights by this operator :: More flights under this callsign
Pilot: Daniel R. (17770)
Aircraft: BOEING 737-200
(B732)
More flights by this aircraft type
Origin: KLAX Los Angeles Intl
United States
Destination: KSFO San Francisco Intl
United States
More flights between these airports :: More routes between these airports
Route: GMN7 AVE BSR BSR3
File this flight plan on PilotEdge
Remarks:
Altitude:
(Current/Filed)
30,000ft
Speed:
(Current/Filed)
439kts
Departed: 10-Oct-18 10:11 AM
Arrived: 10-Oct-18 11:15 AM
Distance/Time
Traveled:
293nm/1:03
Distance/Time
To Go:
Arrived

Flight Plot

Page will automatically refresh every two minutes.

Flight plan parsing failed; only flown route is shown


Map Options




Map Legend


Flown Route
Filed Route
Departure Airport
Arrival Airport
Navaid (VOR, NDB)
Fix

Horizontal Profiles

Position Reports

Time Latitude Longitude Heading Altitude Ground
Speed
10-Oct-18 09:36 33.947524 -118.400753 239 117ft 0kts
10-Oct-18 09:37 33.947524 -118.400753 239 117ft 0kts
10-Oct-18 09:38 33.947524 -118.400753 239 117ft 0kts
10-Oct-18 09:39 33.947524 -118.400754 239 117ft 0kts
10-Oct-18 09:40 33.947524 -118.400754 239 117ft 0kts
10-Oct-18 09:41 33.947524 -118.400754 239 117ft 0kts
10-Oct-18 09:42 33.947524 -118.400754 239 117ft 0kts
10-Oct-18 09:43 33.947524 -118.400754 239 117ft 0kts
10-Oct-18 09:44 33.947524 -118.400753 239 117ft 0kts
10-Oct-18 09:45 33.947524 -118.400753 239 117ft 0kts
10-Oct-18 09:46 33.947524 -118.400753 239 117ft 0kts
10-Oct-18 09:47 33.947524 -118.400753 239 117ft 0kts
10-Oct-18 09:48 33.947524 -118.400753 239 117ft 0kts
10-Oct-18 09:49 33.947524 -118.400753 239 117ft 0kts
10-Oct-18 09:50 33.947524 -118.400753 239 117ft 0kts
10-Oct-18 09:51 33.947524 -118.400753 239 117ft 0kts
10-Oct-18 09:52 33.947524 -118.400753 239 117ft 0kts
10-Oct-18 09:53 33.947524 -118.400753 239 117ft 0kts
10-Oct-18 09:54 33.947524 -118.400753 239 117ft 0kts
10-Oct-18 09:55 33.947524 -118.400753 239 117ft 0kts
10-Oct-18 09:56 33.947524 -118.400753 239 117ft 0kts
10-Oct-18 09:57 33.947524 -118.400753 239 117ft 0kts
10-Oct-18 09:58 33.947524 -118.400753 239 117ft 0kts
10-Oct-18 09:59 33.947524 -118.400753 239 117ft 0kts
10-Oct-18 10:00 33.947595 -118.400555 254 116ft 2kts
10-Oct-18 10:01 33.947327 -118.400130 358 116ft 0kts
10-Oct-18 10:02 33.947321 -118.400130 358 116ft 0kts
10-Oct-18 10:03 33.947321 -118.400130 358 116ft 0kts
10-Oct-18 10:04 33.947321 -118.400130 358 116ft 0kts
10-Oct-18 10:05 33.947321 -118.400130 358 116ft 0kts
10-Oct-18 10:06 33.947321 -118.400130 358 116ft 0kts
10-Oct-18 10:07 33.947321 -118.400130 358 116ft 0kts
10-Oct-18 10:08 33.947321 -118.400130 358 116ft 0kts
10-Oct-18 10:09 33.947437 -118.400133 358 116ft 5kts
10-Oct-18 10:10 33.949251 -118.401628 341 117ft 0kts
10-Oct-18 10:11 33.949251 -118.401628 341 117ft 0kts
10-Oct-18 10:12 33.950079 -118.401966 302 117ft 12kts
10-Oct-18 10:13 33.947698 -118.426392 264 340ft 162kts
10-Oct-18 10:14 33.941201 -118.490223 263 2606ft 208kts
10-Oct-18 10:15 33.934086 -118.561176 263 3013ft 227kts
10-Oct-18 10:16 33.926053 -118.642922 263 3838ft 267kts
10-Oct-18 10:17 33.946452 -118.719589 336 5179ft 287kts
10-Oct-18 10:18 34.020409 -118.709923 12 7011ft 276kts
10-Oct-18 10:19 34.095290 -118.688872 12 8003ft 280kts
10-Oct-18 10:20 34.166993 -118.668687 12 8003ft 282kts
10-Oct-18 10:21 34.242793 -118.647474 12 8001ft 284kts
10-Oct-18 10:22 34.319160 -118.639855 341 8130ft 283kts
10-Oct-18 10:23 34.393328 -118.671706 339 9987ft 287kts
10-Oct-18 10:24 34.468393 -118.705760 338 11759ft 298kts
10-Oct-18 10:25 34.546792 -118.741931 337 13649ft 326kts
10-Oct-18 10:26 34.637208 -118.783883 337 14080ft 349kts
10-Oct-18 10:27 34.729219 -118.826039 338 15309ft 360kts
10-Oct-18 10:28 34.821928 -118.873363 323 16939ft 370kts
10-Oct-18 10:29 34.906180 -118.944948 323 18665ft 373kts
10-Oct-18 10:30 34.991832 -119.016152 322 20176ft 380kts
10-Oct-18 10:31 35.079925 -119.089179 322 21709ft 388kts
10-Oct-18 10:32 35.165385 -119.159582 322 23065ft 393kts
10-Oct-18 10:33 35.256159 -119.234164 322 24367ft 396kts
10-Oct-18 10:34 35.348060 -119.309088 322 25535ft 399kts
10-Oct-18 10:35 35.440494 -119.384371 323 26583ft 402kts
10-Oct-18 10:36 35.533406 -119.460215 320 27532ft 403kts
10-Oct-18 10:37 35.577723 -119.581624 282 28181ft 396kts
10-Oct-18 10:38 35.600025 -119.708989 280 29054ft 395kts
10-Oct-18 10:39 35.622254 -119.840975 280 29775ft 397kts
10-Oct-18 10:40 35.644515 -119.973515 284 29978ft 394kts
10-Oct-18 10:41 35.685304 -120.097508 290 29979ft 390kts
10-Oct-18 10:42 35.725708 -120.219980 290 29977ft 385kts
10-Oct-18 10:43 35.765344 -120.341517 290 29978ft 383kts
10-Oct-18 10:44 35.804508 -120.462682 290 29978ft 383kts
10-Oct-18 10:45 35.843695 -120.584039 290 29977ft 382kts
10-Oct-18 10:46 35.881947 -120.704225 289 29983ft 382kts
10-Oct-18 10:47 35.920414 -120.825747 289 29982ft 382kts
10-Oct-18 10:48 35.955744 -120.950929 288 29083ft 403kts
10-Oct-18 10:49 35.994875 -121.076124 291 28532ft 392kts
10-Oct-18 10:50 36.035377 -121.199397 292 27930ft 385kts
10-Oct-18 10:51 36.075686 -121.321207 293 27133ft 382kts
10-Oct-18 10:52 36.112300 -121.435042 292 26269ft 378kts
10-Oct-18 10:53 36.150506 -121.554573 292 25253ft 373kts
10-Oct-18 10:54 36.197307 -121.666120 319 24275ft 369kts
10-Oct-18 10:55 36.282801 -121.733669 324 22222ft 376kts
10-Oct-18 10:56 36.368340 -121.805846 323 20458ft 369kts
10-Oct-18 10:57 36.450075 -121.876664 323 19928ft 344kts
10-Oct-18 10:58 36.536860 -121.912300 347 18197ft 351kts
10-Oct-18 10:59 36.628526 -121.933952 346 16426ft 329kts
10-Oct-18 11:00 36.715626 -121.956127 345 14885ft 306kts
10-Oct-18 11:01 36.797033 -121.977275 345 13483ft 288kts
10-Oct-18 11:02 36.874376 -121.997517 345 12034ft 281kts
10-Oct-18 11:03 36.950132 -122.017396 345 11004ft 279kts
10-Oct-18 11:04 37.025675 -122.037316 346 10264ft 277kts
10-Oct-18 11:05 37.099876 -122.056892 347 10013ft 271kts
10-Oct-18 11:06 37.167698 -122.074684 347 10009ft 268kts
10-Oct-18 11:07 37.228786 -122.090794 347 9200ft 274kts
10-Oct-18 11:08 37.314272 -122.113449 348 8102ft 270kts
10-Oct-18 11:09 37.380659 -122.115364 3 8000ft 222kts
10-Oct-18 11:10 37.434521 -122.111059 3 6275ft 238kts
10-Oct-18 11:11 37.497652 -122.110795 333 4442ft 230kts
10-Oct-18 11:12 37.531444 -122.168669 300 4012ft 179kts
10-Oct-18 11:13 37.562414 -122.241237 298 2172ft 204kts
10-Oct-18 11:14 37.583450 -122.291212 298 1237ft 175kts
10-Oct-18 11:15 37.602409 -122.336224 299 486ft 143kts
10-Oct-18 11:16 37.619367 -122.376735 299 26ft 73kts
10-Oct-18 11:17 37.621190 -122.383208 197 32ft 0kts
10-Oct-18 11:18 37.620368 -122.383350 156 32ft 15kts
10-Oct-18 11:19 37.616403 -122.379789 206 31ft 21kts
10-Oct-18 11:20 37.613654 -122.382707 297 32ft 0kts
10-Oct-18 11:21 37.613883 -122.383482 256 32ft 10kts
10-Oct-18 11:22 37.613626 -122.384460 250 32ft 0kts
10-Oct-18 11:23 37.613626 -122.384460 250 32ft 0kts
10-Oct-18 11:24 37.613626 -122.384460 250 32ft 0kts
10-Oct-18 11:25 37.613626 -122.384460 250 32ft 0kts
10-Oct-18 11:26 37.613626 -122.384460 250 32ft 0kts
10-Oct-18 11:27 37.613626 -122.384460 250 32ft 0kts

Navigation Log

Ident Type
Flight plan parsing failed, navigation log unavailable